Time;durP1;ratioP1;P1;durP2;ratioP2;P2;SDS_P1;SDS_P2;PMS_P1;PMS_P2;Temp;Humidity;BMP_temperature;BMP_pressure;BME280_temperature;BME280_humidity;BME280_pressure;Samples;Min_cycle;Max_cycle;Signal;HPM_P1;HPM_P2
2021/08/06 00:02:18;;;;;;;12.50;9.57;;;;;;;;;;5148988;27;20482;-77
2021/08/06 00:04:45;;;;;;;11.27;10.13;;;;;;;;;;5139968;27;20048;-77
2021/08/06 00:07:12;;;;;;;11.07;10.07;;;;;;;;;;5136653;27;20057;-77
2021/08/06 00:09:39;;;;;;;11.70;10.60;;;;;;;;;;5153154;27;20039;-77
2021/08/06 00:12:05;;;;;;;12.15;10.90;;;;;;;;;;5149141;27;20059;-77
2021/08/06 00:14:32;;;;;;;11.82;10.73;;;;;;;;;;5139706;27;20035;-77
2021/08/06 00:16:58;;;;;;;11.80;10.70;;;;;;;;;;5136697;27;20047;-77
2021/08/06 00:19:24;;;;;;;12.52;11.27;;;;;;;;;;5135270;27;20098;-76
2021/08/06 00:21:50;;;;;;;12.63;11.35;;;;;;;;;;5135285;27;20126;-76
2021/08/06 00:24:16;;;;;;;14.55;11.65;;;;;;;;;;5149712;27;20038;-78
2021/08/06 00:26:43;;;;;;;13.23;11.93;;;;;;;;;;5136148;27;20039;-77
2021/08/06 00:29:09;;;;;;;13.05;11.73;;;;;;;;;;5145080;27;20039;-78
2021/08/06 00:31:36;;;;;;;13.15;11.82;;;;;;;;;;5135700;27;20035;-77
2021/08/06 00:34:03;;;;;;;14.00;12.60;;;;;;;;;;5141841;27;20505;-77
2021/08/06 00:36:29;;;;;;;14.23;12.82;;;;;;;;;;5145592;27;20371;-78
2021/08/06 00:38:55;;;;;;;13.75;12.45;;;;;;;;;;5148109;27;20035;-76
2021/08/06 00:41:21;;;;;;;13.75;12.27;;;;;;;;;;5140212;27;20034;-77
2021/08/06 00:43:47;;;;;;;14.00;12.70;;;;;;;;;;5127471;27;20051;-77
2021/08/06 00:46:16;;;;;;;15.00;13.68;;;;;;;;;;5136643;27;20039;-77
2021/08/06 00:48:43;;;;;;;16.00;14.43;;;;;;;;;;5148999;27;20047;-77
2021/08/06 00:51:09;;;;;;;14.55;13.15;;;;;;;;;;5143492;27;20047;-77
2021/08/06 00:53:39;;;;;;;14.63;13.23;;;;;;;;;;5137715;27;20031;-77
2021/08/06 00:56:09;;;;;;;14.63;13.23;;;;;;;;;;5134741;27;20039;-77
2021/08/06 00:58:36;;;;;;;15.23;13.38;;;;;;;;;;5150206;27;20046;-76
2021/08/06 01:01:02;;;;;;;16.05;14.52;;;;;;;;;;5140516;27;20050;-77
2021/08/06 01:03:36;;;;;;;14.48;13.02;;;;;;;;;;5135705;27;20072;-76
2021/08/06 01:06:08;;;;;;;15.13;13.55;;;;;;;;;;5141482;27;20075;-77
2021/08/06 01:08:43;;;;;;;15.52;13.90;;;;;;;;;;5142231;27;20470;-76
2021/08/06 01:11:10;;;;;;;16.13;14.50;;;;;;;;;;5140425;27;20086;-76
2021/08/06 01:13:36;;;;;;;16.67;14.82;;;;;;;;;;5150652;27;20046;-76
2021/08/06 01:16:05;;;;;;;15.88;14.27;;;;;;;;;;5137499;27;20035;-77
2021/08/06 01:18:32;;;;;;;18.25;14.77;;;;;;;;;;5135393;27;20045;-76
2021/08/06 01:21:03;;;;;;;18.67;15.30;;;;;;;;;;5138251;27;20126;-76
2021/08/06 01:23:34;;;;;;;15.63;14.13;;;;;;;;;;5140407;27;20727;-77
2021/08/06 01:26:09;;;;;;;16.77;14.77;;;;;;;;;;5134463;27;20510;-76
2021/08/06 01:28:37;;;;;;;16.17;14.52;;;;;;;;;;5139242;27;20043;-77
2021/08/06 01:31:04;;;;;;;16.02;14.43;;;;;;;;;;5124285;27;20092;-77
2021/08/06 01:33:30;;;;;;;16.92;15.23;;;;;;;;;;5130952;27;20088;-76
2021/08/06 01:35:57;;;;;;;16.73;15.05;;;;;;;;;;5134401;27;20071;-77
2021/08/06 01:38:23;;;;;;;16.75;15.05;;;;;;;;;;5136792;27;20064;-77
2021/08/06 01:40:55;;;;;;;15.85;14.40;;;;;;;;;;5136705;27;20039;-77
2021/08/06 01:43:40;;;;;;;17.95;15.05;;;;;;;;;;5139470;27;20042;-76
2021/08/06 01:46:17;;;;;;;17.83;16.10;;;;;;;;;;5141223;27;20134;-77
2021/08/06 01:48:46;;;;;;;15.80;14.15;;;;;;;;;;5152850;27;20038;-76
2021/08/06 01:51:13;;;;;;;16.85;15.15;;;;;;;;;;5146374;27;20089;-76
2021/08/06 01:53:42;;;;;;;17.40;15.70;;;;;;;;;;5139204;27;20394;-76
2021/08/06 01:56:11;;;;;;;16.27;14.82;;;;;;;;;;5147155;27;20122;-76
2021/08/06 01:58:38;;;;;;;16.90;15.30;;;;;;;;;;5126908;27;20264;-76
2021/08/06 02:01:04;;;;;;;17.25;14.95;;;;;;;;;;5127232;27;20083;-76
2021/08/06 02:03:31;;;;;;;17.00;15.20;;;;;;;;;;5133773;27;20035;-75
2021/08/06 02:05:57;;;;;;;17.77;16.02;;;;;;;;;;5132783;27;20120;-75
2021/08/06 02:08:23;;;;;;;15.75;14.35;;;;;;;;;;5135344;27;20031;-76
2021/08/06 02:10:50;;;;;;;17.35;14.95;;;;;;;;;;5135137;27;20088;-76
2021/08/06 02:13:16;;;;;;;16.17;14.57;;;;;;;;;;5134559;27;20059;-77
2021/08/06 02:15:43;;;;;;;17.13;15.52;;;;;;;;;;5135820;27;20070;-76
2021/08/06 02:18:11;;;;;;;16.95;15.15;;;;;;;;;;5133602;27;20067;-76
2021/08/06 02:20:37;;;;;;;16.52;14.93;;;;;;;;;;5133063;27;20306;-76
2021/08/06 02:23:05;;;;;;;18.42;15.13;;;;;;;;;;5132534;27;20169;-77
2021/08/06 02:25:32;;;;;;;16.67;15.07;;;;;;;;;;5136624;27;20046;-76
2021/08/06 02:27:59;;;;;;;17.13;15.32;;;;;;;;;;5135025;27;20223;-74
2021/08/06 02:30:26;;;;;;;16.23;14.65;;;;;;;;;;5133634;27;20036;-76
2021/08/06 02:32:52;;;;;;;16.40;14.80;;;;;;;;;;5147318;27;20042;-76
2021/08/06 02:35:19;;;;;;;17.27;15.38;;;;;;;;;;5146235;27;20673;-76
2021/08/06 02:37:46;;;;;;;17.40;15.70;;;;;;;;;;5133038;27;20045;-76
2021/08/06 02:40:13;;;;;;;17.58;15.77;;;;;;;;;;5133178;27;20512;-77
2021/08/06 02:42:39;;;;;;;17.92;15.90;;;;;;;;;;5133457;27;20039;-76
2021/08/06 02:45:06;;;;;;;17.58;15.82;;;;;;;;;;5141332;27;20070;-76
2021/08/06 02:47:32;;;;;;;17.77;16.08;;;;;;;;;;5137613;27;20070;-77
2021/08/06 02:49:59;;;;;;;17.83;16.10;;;;;;;;;;5138892;27;20042;-75
2021/08/06 02:52:25;;;;;;;16.63;14.80;;;;;;;;;;5146068;27;20035;-76
2021/08/06 02:54:52;;;;;;;17.95;16.15;;;;;;;;;;5132992;27;20034;-76
2021/08/06 02:57:18;;;;;;;18.13;16.33;;;;;;;;;;5137218;27;20058;-76
2021/08/06 02:59:44;;;;;;;18.35;16.60;;;;;;;;;;5132776;28;20042;-76
2021/08/06 03:02:10;;;;;;;18.63;16.00;;;;;;;;;;5139902;27;20397;-77
2021/08/06 03:04:36;;;;;;;18.25;16.33;;;;;;;;;;5135119;27;20035;-76
2021/08/06 03:07:03;;;;;;;17.50;15.68;;;;;;;;;;5132659;27;20043;-76
2021/08/06 03:09:29;;;;;;;17.70;15.85;;;;;;;;;;5133218;27;20043;-77
2021/08/06 03:11:55;;;;;;;16.83;15.18;;;;;;;;;;5145482;27;20054;-77
2021/08/06 03:14:21;;;;;;;17.48;15.35;;;;;;;;;;5132641;27;20058;-77
2021/08/06 03:16:47;;;;;;;17.30;15.57;;;;;;;;;;5114808;27;20049;-76
2021/08/06 03:19:14;;;;;;;16.98;15.30;;;;;;;;;;5136758;27;20054;-76
2021/08/06 03:21:40;;;;;;;18.58;16.77;;;;;;;;;;5140777;27;20031;-76
2021/08/06 03:24:06;;;;;;;18.15;16.25;;;;;;;;;;5142775;27;20440;-76
2021/08/06 03:26:32;;;;;;;19.02;17.13;;;;;;;;;;5136904;27;20092;-76
2021/08/06 03:28:58;;;;;;;17.95;16.23;;;;;;;;;;5143118;27;20054;-77
2021/08/06 03:31:25;;;;;;;18.45;16.50;;;;;;;;;;5148233;27;20045;-75
2021/08/06 03:33:51;;;;;;;18.48;16.58;;;;;;;;;;5137515;27;20046;-77
2021/08/06 03:36:17;;;;;;;18.70;16.77;;;;;;;;;;5136735;27;20378;-76
2021/08/06 03:38:43;;;;;;;16.70;14.88;;;;;;;;;;5140569;27;20530;-77
2021/08/06 03:41:09;;;;;;;16.70;15.10;;;;;;;;;;5144337;27;20054;-76
2021/08/06 03:43:36;;;;;;;17.60;15.82;;;;;;;;;;5140727;27;20042;-76
2021/08/06 03:46:02;;;;;;;17.13;15.32;;;;;;;;;;5140055;27;20539;-77
2021/08/06 03:48:28;;;;;;;17.55;15.70;;;;;;;;;;5150830;27;20095;-77
2021/08/06 03:50:54;;;;;;;18.30;16.40;;;;;;;;;;5138148;27;20035;-77
2021/08/06 03:53:21;;;;;;;17.15;15.38;;;;;;;;;;5144788;27;20035;-76
2021/08/06 03:55:47;;;;;;;17.17;15.48;;;;;;;;;;5151273;27;20069;-76
2021/08/06 03:58:14;;;;;;;17.02;15.23;;;;;;;;;;5143499;27;20051;-76
2021/08/06 04:00:40;;;;;;;17.30;15.60;;;;;;;;;;5134959;27;20039;-75
2021/08/06 04:03:07;;;;;;;17.10;15.30;;;;;;;;;;5137764;27;20493;-76
2021/08/06 04:05:34;;;;;;;16.80;15.10;;;;;;;;;;5140849;27;20042;-76
2021/08/06 04:08:05;;;;;;;17.25;15.52;;;;;;;;;;5136517;27;20065;-76
2021/08/06 04:10:31;;;;;;;16.77;14.88;;;;;;;;;;5132471;27;20429;-76
2021/08/06 04:12:57;;;;;;;15.93;14.32;;;;;;;;;;5136505;27;20063;-76
2021/08/06 04:15:23;;;;;;;16.73;15.05;;;;;;;;;;5119406;27;20039;-77
2021/08/06 04:17:49;;;;;;;15.95;14.35;;;;;;;;;;5144420;27;20035;-78
2021/08/06 04:20:16;;;;;;;16.85;15.15;;;;;;;;;;5133195;27;20046;-77
2021/08/06 04:22:42;;;;;;;16.38;14.13;;;;;;;;;;5145139;27;20488;-76
2021/08/06 04:25:10;;;;;;;16.20;14.30;;;;;;;;;;5121508;27;20122;-76
2021/08/06 04:27:36;;;;;;;17.23;15.38;;;;;;;;;;5129817;27;20050;-78
2021/08/06 04:30:03;;;;;;;17.50;15.70;;;;;;;;;;5142459;27;20050;-77
2021/08/06 04:32:30;;;;;;;16.25;14.57;;;;;;;;;;5147164;27;20283;-76
2021/08/06 04:34:56;;;;;;;16.92;14.40;;;;;;;;;;5132121;27;20122;-83
2021/08/06 04:37:22;;;;;;;17.40;14.70;;;;;;;;;;5123218;27;20051;-78
2021/08/06 04:39:49;;;;;;;17.63;15.20;;;;;;;;;;5139029;27;20059;-80
2021/08/06 04:42:15;;;;;;;16.90;15.13;;;;;;;;;;5147937;27;20443;-77
2021/08/06 04:44:43;;;;;;;15.73;14.27;;;;;;;;;;5141895;27;20035;-79
2021/08/06 04:47:09;;;;;;;22.73;14.60;;;;;;;;;;5137673;27;20046;-88
2021/08/06 04:49:36;;;;;;;16.17;14.27;;;;;;;;;;5137712;27;20035;-82
2021/08/06 04:52:03;;;;;;;15.50;13.95;;;;;;;;;;5144455;27;20042;-82
2021/08/06 04:54:31;;;;;;;16.05;14.35;;;;;;;;;;5138584;27;20038;-84
2021/08/06 04:56:57;;;;;;;16.63;14.95;;;;;;;;;;5138655;27;20039;-80
2021/08/06 04:59:24;;;;;;;16.15;14.55;;;;;;;;;;5145636;27;20370;-81
2021/08/06 05:01:50;;;;;;;16.30;14.60;;;;;;;;;;5144373;27;20341;-78
2021/08/06 05:04:16;;;;;;;18.10;16.15;;;;;;;;;;5131139;27;20083;-83
2021/08/06 05:06:42;;;;;;;16.10;14.40;;;;;;;;;;5148676;27;20030;-85
2021/08/06 05:09:08;;;;;;;16.98;14.63;;;;;;;;;;5143090;27;20039;-78
2021/08/06 05:11:35;;;;;;;15.05;13.48;;;;;;;;;;5136535;27;20501;-77
2021/08/06 05:14:01;;;;;;;15.95;14.30;;;;;;;;;;5142047;27;20081;-77
2021/08/06 05:16:27;;;;;;;15.77;14.13;;;;;;;;;;5134285;27;20043;-77
2021/08/06 05:18:54;;;;;;;16.05;14.45;;;;;;;;;;5140461;27;20043;-77
2021/08/06 05:21:20;;;;;;;18.02;14.60;;;;;;;;;;5116092;27;20043;-76
2021/08/06 05:23:46;;;;;;;15.20;13.60;;;;;;;;;;5133622;27;20482;-76
2021/08/06 05:26:13;;;;;;;17.50;13.70;;;;;;;;;;5136070;27;20398;-77
2021/08/06 05:28:39;;;;;;;16.95;13.95;;;;;;;;;;5136135;27;20047;-77
2021/08/06 05:31:05;;;;;;;13.88;12.48;;;;;;;;;;5134613;27;20492;-77
2021/08/06 05:33:32;;;;;;;14.98;13.23;;;;;;;;;;5115274;27;20525;-76
2021/08/06 05:35:58;;;;;;;15.40;13.73;;;;;;;;;;5115392;27;20075;-77
2021/08/06 05:38:25;;;;;;;15.40;13.38;;;;;;;;;;5147513;27;20474;-76
2021/08/06 05:40:52;;;;;;;14.80;13.15;;;;;;;;;;5133918;27;20035;-77
2021/08/06 05:43:18;;;;;;;15.55;12.95;;;;;;;;;;5121116;27;20118;-77
2021/08/06 05:45:44;;;;;;;15.43;13.07;;;;;;;;;;5134843;27;20047;-76
2021/08/06 05:48:13;;;;;;;13.57;12.25;;;;;;;;;;5134345;27;20482;-76
2021/08/06 05:50:40;;;;;;;13.30;11.85;;;;;;;;;;5130803;27;20087;-77
2021/08/06 05:53:06;;;;;;;13.60;11.45;;;;;;;;;;5136716;27;20039;-77
2021/08/06 05:55:32;;;;;;;11.90;10.80;;;;;;;;;;5115046;27;20461;-77
2021/08/06 05:57:58;;;;;;;12.02;10.82;;;;;;;;;;5133642;27;20095;-77
2021/08/06 06:00:25;;;;;;;12.13;9.98;;;;;;;;;;5136320;27;20038;-76
2021/08/06 06:02:52;;;;;;;13.38;10.52;;;;;;;;;;5142272;27;20035;-77
2021/08/06 06:05:20;;;;;;;11.82;10.05;;;;;;;;;;5134208;27;20050;-78
2021/08/06 06:07:48;;;;;;;11.68;9.73;;;;;;;;;;5133682;27;20035;-77
2021/08/06 06:10:17;;;;;;;12.15;9.75;;;;;;;;;;5133824;27;20039;-78
2021/08/06 06:12:43;;;;;;;11.50;9.93;;;;;;;;;;5132698;27;20054;-77
2021/08/06 06:15:10;;;;;;;11.15;9.25;;;;;;;;;;5134316;27;20046;-77
2021/08/06 06:17:37;;;;;;;9.88;8.88;;;;;;;;;;5132438;27;20126;-76
2021/08/06 06:20:04;;;;;;;10.25;9.13;;;;;;;;;;5123866;27;20118;-77
2021/08/06 06:22:30;;;;;;;10.27;9.23;;;;;;;;;;5132950;27;20077;-76
2021/08/06 06:24:56;;;;;;;11.05;8.75;;;;;;;;;;5134514;27;20621;-77
2021/08/06 06:27:23;;;;;;;10.48;8.07;;;;;;;;;;5133262;27;20065;-76
2021/08/06 06:29:49;;;;;;;9.50;8.15;;;;;;;;;;5133718;27;20039;-76
2021/08/06 06:32:15;;;;;;;12.55;9.07;;;;;;;;;;5132730;27;20459;-77
2021/08/06 06:34:42;;;;;;;9.85;8.80;;;;;;;;;;5132968;27;20043;-77
2021/08/06 06:37:08;;;;;;;9.95;8.10;;;;;;;;;;5132969;27;20100;-78
2021/08/06 06:39:34;;;;;;;9.35;8.43;;;;;;;;;;5133131;27;20482;-76
2021/08/06 06:42:00;;;;;;;8.40;7.60;;;;;;;;;;5145531;27;20073;-76
2021/08/06 06:44:27;;;;;;;10.20;8.23;;;;;;;;;;5134549;27;20042;-76
2021/08/06 06:46:53;;;;;;;11.23;8.50;;;;;;;;;;5133743;27;20042;-76
2021/08/06 06:49:19;;;;;;;9.40;8.00;;;;;;;;;;5133362;27;20039;-77
2021/08/06 06:51:45;;;;;;;10.20;7.68;;;;;;;;;;5132304;27;20449;-77
2021/08/06 06:54:11;;;;;;;8.98;8.13;;;;;;;;;;5142277;27;20043;-76
2021/08/06 06:56:37;;;;;;;10.18;8.18;;;;;;;;;;5143256;27;20038;-76
2021/08/06 06:59:03;;;;;;;12.23;8.98;;;;;;;;;;5137335;27;20051;-76
2021/08/06 07:01:30;;;;;;;10.98;9.15;;;;;;;;;;5131486;27;20039;-75
2021/08/06 07:03:56;;;;;;;21.00;11.57;;;;;;;;;;5132995;27;20047;-75
2021/08/06 07:06:22;;;;;;;13.25;11.55;;;;;;;;;;5133450;27;20481;-76
2021/08/06 07:08:49;;;;;;;16.38;11.45;;;;;;;;;;5132240;28;20039;-76
2021/08/06 07:11:15;;;;;;;15.70;12.65;;;;;;;;;;5132417;27;20068;-76
2021/08/06 07:13:41;;;;;;;16.40;13.55;;;;;;;;;;5114433;28;20043;-75
2021/08/06 07:16:07;;;;;;;14.80;12.38;;;;;;;;;;5133491;27;20116;-76
2021/08/06 07:18:34;;;;;;;13.27;11.85;;;;;;;;;;5132190;27;20039;-76
2021/08/06 07:21:01;;;;;;;15.32;12.48;;;;;;;;;;5133332;27;20039;-76
2021/08/06 07:23:30;;;;;;;17.27;13.57;;;;;;;;;;5135619;27;20074;-76
2021/08/06 07:25:57;;;;;;;18.60;13.23;;;;;;;;;;5133465;27;20151;-76
2021/08/06 07:28:24;;;;;;;18.50;14.15;;;;;;;;;;5114529;28;20054;-75
2021/08/06 07:30:50;;;;;;;18.48;14.88;;;;;;;;;;5132485;27;20779;-76
2021/08/06 07:33:16;;;;;;;20.05;14.05;;;;;;;;;;5133379;27;20035;-76
2021/08/06 07:35:43;;;;;;;20.45;15.38;;;;;;;;;;5132063;28;20039;-75
2021/08/06 07:38:09;;;;;;;24.88;17.30;;;;;;;;;;5132170;27;20117;-76
2021/08/06 07:40:35;;;;;;;17.58;14.95;;;;;;;;;;5145005;27;20439;-76
2021/08/06 07:43:01;;;;;;;23.88;16.98;;;;;;;;;;5114797;27;20470;-76
2021/08/06 07:45:27;;;;;;;26.77;17.58;;;;;;;;;;5116049;27;20032;-75
2021/08/06 07:47:54;;;;;;;33.00;20.17;;;;;;;;;;5113749;28;20434;-75
2021/08/06 07:50:20;;;;;;;30.70;19.98;;;;;;;;;;5132196;27;20046;-77
2021/08/06 07:52:46;;;;;;;41.40;21.45;;;;;;;;;;5131613;27;20046;-77
2021/08/06 07:55:13;;;;;;;28.48;18.80;;;;;;;;;;5134665;27;20043;-77
2021/08/06 07:57:39;;;;;;;25.38;16.38;;;;;;;;;;5148321;27;20046;-77
2021/08/06 08:00:06;;;;;;;28.80;16.73;;;;;;;;;;5132532;27;20035;-77
2021/08/06 08:02:32;;;;;;;21.00;14.57;;;;;;;;;;5132341;27;20091;-76
2021/08/06 08:04:59;;;;;;;12.45;8.63;;;;;;;;;;5132698;27;20039;-76
2021/08/06 08:07:25;;;;;;;9.38;8.35;;;;;;;;;;5130348;27;20046;-76
2021/08/06 08:09:51;;;;;;;10.02;8.60;;;;;;;;;;5135052;27;20043;-76
2021/08/06 08:12:17;;;;;;;10.40;9.30;;;;;;;;;;5136109;27;20069;-77
2021/08/06 08:14:47;;;;;;;16.08;10.73;;;;;;;;;;5134703;27;20494;-76
2021/08/06 08:17:14;;;;;;;9.60;8.70;;;;;;;;;;5136238;27;20043;-76
2021/08/06 08:19:41;;;;;;;13.60;9.88;;;;;;;;;;5140607;27;20059;-76
2021/08/06 08:22:07;;;;;;;9.40;7.28;;;;;;;;;;5140528;27;20046;-76
2021/08/06 08:24:33;;;;;;;8.60;7.68;;;;;;;;;;5150930;27;20041;-76
2021/08/06 08:27:00;;;;;;;10.10;8.90;;;;;;;;;;5135071;27;20456;-77
2021/08/06 08:29:26;;;;;;;9.80;7.45;;;;;;;;;;5136709;27;20035;-76
2021/08/06 08:31:52;;;;;;;9.18;7.65;;;;;;;;;;5133134;27;20084;-77
2021/08/06 08:34:18;;;;;;;10.40;9.32;;;;;;;;;;5135536;27;20043;-77
2021/08/06 08:36:45;;;;;;;7.97;6.95;;;;;;;;;;5132971;27;20039;-77
2021/08/06 08:39:12;;;;;;;9.57;8.30;;;;;;;;;;5135844;27;20501;-76
2021/08/06 08:41:38;;;;;;;11.50;10.25;;;;;;;;;;5125120;27;20073;-77
2021/08/06 08:44:04;;;;;;;9.35;8.00;;;;;;;;;;5150961;27;20092;-78
2021/08/06 08:46:31;;;;;;;11.80;8.60;;;;;;;;;;5132953;27;20053;-77
2021/08/06 08:48:58;;;;;;;9.38;8.48;;;;;;;;;;5117156;27;20268;-77
2021/08/06 08:51:26;;;;;;;12.82;10.93;;;;;;;;;;5135222;27;20105;-77
2021/08/06 08:53:52;;;;;;;14.30;9.45;;;;;;;;;;5134946;27;20076;-77
2021/08/06 08:56:18;;;;;;;11.25;10.05;;;;;;;;;;5135158;27;20516;-77
2021/08/06 08:58:44;;;;;;;10.82;9.70;;;;;;;;;;5134655;27;20046;-77
2021/08/06 09:01:11;;;;;;;12.70;11.30;;;;;;;;;;5138830;27;20119;-78
2021/08/06 09:03:39;;;;;;;12.38;9.82;;;;;;;;;;5135629;27;20038;-77
2021/08/06 09:06:07;;;;;;;8.75;7.55;;;;;;;;;;5135396;27;20068;-78
2021/08/06 09:08:33;;;;;;;8.63;7.82;;;;;;;;;;5133202;27;20035;-78
2021/08/06 09:11:00;;;;;;;9.77;8.77;;;;;;;;;;5135242;27;20043;-78
2021/08/06 09:13:27;;;;;;;12.00;9.70;;;;;;;;;;5134884;27;20541;-78
2021/08/06 09:15:54;;;;;;;9.35;8.48;;;;;;;;;;5133965;27;20039;-77
2021/08/06 09:18:26;;;;;;;9.02;8.13;;;;;;;;;;5133678;27;20043;-77
2021/08/06 09:21:25;;;;;;;10.02;8.45;;;;;;;;;;5117120;27;20031;-77
2021/08/06 09:23:59;;;;;;;8.55;7.80;;;;;;;;;;5090660;27;20482;-77
2021/08/06 09:26:42;;;;;;;10.88;9.75;;;;;;;;;;5132233;27;20046;-77
2021/08/06 09:29:20;;;;;;;10.27;9.27;;;;;;;;;;5123351;27;20481;-76
2021/08/06 09:31:57;;;;;;;8.38;7.35;;;;;;;;;;5133971;27;20099;-76
2021/08/06 09:34:28;;;;;;;7.50;6.78;;;;;;;;;;5132338;27;20042;-77
2021/08/06 09:36:57;;;;;;;8.77;7.93;;;;;;;;;;5132579;27;20039;-78
2021/08/06 09:39:24;;;;;;;7.43;6.82;;;;;;;;;;5134027;27;20047;-77
2021/08/06 09:41:50;;;;;;;7.65;6.93;;;;;;;;;;5132848;27;20054;-78
2021/08/06 09:44:21;;;;;;;7.10;6.47;;;;;;;;;;5111054;27;20039;-78
2021/08/06 09:46:47;;;;;;;7.72;6.60;;;;;;;;;;5132609;27;20043;-78
2021/08/06 09:49:14;;;;;;;6.72;6.10;;;;;;;;;;5133788;27;20031;-78
2021/08/06 09:51:41;;;;;;;7.63;6.85;;;;;;;;;;5133247;27;20043;-78
2021/08/06 09:54:23;;;;;;;8.82;7.10;;;;;;;;;;5132595;27;20047;-81
2021/08/06 09:56:50;;;;;;;6.90;6.25;;;;;;;;;;5132377;27;20078;-78
2021/08/06 09:59:28;;;;;;;6.10;5.63;;;;;;;;;;5133273;27;20042;-77
2021/08/06 10:02:11;;;;;;;8.43;6.85;;;;;;;;;;5144911;27;20490;-78
2021/08/06 10:04:37;;;;;;;7.93;6.30;;;;;;;;;;5133473;27;20039;-78
2021/08/06 10:07:04;;;;;;;6.18;5.60;;;;;;;;;;5132941;27;20035;-77
2021/08/06 10:09:30;;;;;;;6.63;5.95;;;;;;;;;;5132940;27;20039;-76
2021/08/06 10:11:56;;;;;;;6.30;5.75;;;;;;;;;;5132438;27;20057;-77
2021/08/06 10:14:23;;;;;;;6.50;5.55;;;;;;;;;;5132905;27;20042;-78
2021/08/06 10:16:49;;;;;;;5.05;4.55;;;;;;;;;;5130524;27;20096;-77
2021/08/06 10:19:15;;;;;;;5.63;4.80;;;;;;;;;;5114976;27;20047;-76
2021/08/06 10:21:42;;;;;;;5.47;4.80;;;;;;;;;;5133145;27;20439;-77
2021/08/06 10:24:09;;;;;;;5.47;4.97;;;;;;;;;;5132419;27;20269;-77
2021/08/06 10:26:35;;;;;;;6.15;5.38;;;;;;;;;;5133103;27;20051;-78
2021/08/06 10:29:01;;;;;;;6.70;4.78;;;;;;;;;;5125674;27;20042;-77
2021/08/06 10:31:27;;;;;;;4.75;4.32;;;;;;;;;;5132084;27;20039;-78
2021/08/06 10:34:00;;;;;;;5.18;4.20;;;;;;;;;;5131253;27;20042;-76
2021/08/06 10:36:58;;;;;;;4.63;4.22;;;;;;;;;;5138649;27;20042;-79
2021/08/06 10:39:31;;;;;;;4.88;3.83;;;;;;;;;;5091844;27;20051;-79
2021/08/06 10:41:58;;;;;;;5.70;4.43;;;;;;;;;;5132391;27;20121;-80
2021/08/06 10:44:24;;;;;;;4.53;4.13;;;;;;;;;;5136308;27;20045;-79
2021/08/06 10:46:52;;;;;;;4.57;4.18;;;;;;;;;;5121622;27;20051;-79
2021/08/06 10:49:19;;;;;;;4.47;4.07;;;;;;;;;;5132219;27;20039;-80
2021/08/06 10:51:45;;;;;;;4.47;4.07;;;;;;;;;;5132770;27;20475;-81
2021/08/06 10:54:24;;;;;;;5.43;4.68;;;;;;;;;;5131876;27;20414;-80
2021/08/06 10:56:50;;;;;;;5.30;4.38;;;;;;;;;;5134497;27;20067;-80
2021/08/06 10:59:16;;;;;;;;;;;;;;;;;;5133401;27;20074;-80
2021/08/06 11:01:42;;;;;;;;;;;;;;;;;;5149855;27;19959;-82
2021/08/06 11:04:08;;;;;;;;;;;;;;;;;;5117059;28;20683;-81
2021/08/06 11:06:34;;;;;;;;;;;;;;;;;;5144113;27;19919;-80
2021/08/06 11:09:00;;;;;;;;;;;;;;;;;;5126540;28;20023;-77
2021/08/06 11:11:26;;;;;;;;;;;;;;;;;;5133621;27;19931;-79
2021/08/06 11:13:52;;;;;;;;;;;;;;;;;;5144316;27;19923;-77
2021/08/06 11:16:19;;;;;;;;;;;;;;;;;;5133111;27;19962;-79
2021/08/06 11:18:45;;;;;;;;;;;;;;;;;;5133418;27;19966;-78
2021/08/06 11:21:11;;;;;;;;;;;;;;;;;;5130333;28;19919;-76
2021/08/06 11:23:37;;;;;;;;;;;;;;;;;;5146152;27;20069;-75
2021/08/06 11:26:03;;;;;;;;;;;;;;;;;;5140141;27;19919;-78
2021/08/06 11:28:29;;;;;;;;;;;;;;;;;;5134655;27;19919;-75
2021/08/06 11:30:55;;;;;;;;;;;;;;;;;;5138109;27;19920;-74
2021/08/06 11:33:21;;;;;;;;;;;;;;;;;;5115182;28;19919;-76
2021/08/06 11:35:47;;;;;;;;;;;;;;;;;;5133636;27;19924;-75
2021/08/06 11:38:13;;;;;;;;;;;;;;;;;;5134887;27;20425;-75
2021/08/06 11:40:39;;;;;;;;;;;;;;;;;;5140588;27;20297;-73
2021/08/06 11:43:05;;;;;;;;;;;;;;;;;;5146116;27;19929;-76
2021/08/06 11:45:31;;;;;;;;;;;;;;;;;;5137541;27;19918;-74
2021/08/06 11:47:57;;;;;;;;;;;;;;;;;;5151680;27;19925;-76
2021/08/06 11:50:23;;;;;;;;;;;;;;;;;;5140329;27;19942;-77
2021/08/06 11:52:49;;;;;;;;;;;;;;;;;;5119434;27;19919;-77
2021/08/06 11:55:16;;;;;;;;;;;;;;;;;;5135981;27;19947;-78
2021/08/06 11:57:42;;;;;;;;;;;;;;;;;;5141960;27;19987;-77
2021/08/06 12:00:08;;;;;;;;;;;;;;;;;;5141966;27;19923;-79
2021/08/06 12:02:34;;;;;;;;;;;;;;;;;;5144665;27;19961;-77
2021/08/06 12:05:00;;;;;;;;;;;;;;;;;;5142163;27;19972;-80
2021/08/06 12:07:26;;;;;;;;;;;;;;;;;;5129106;27;19961;-84
2021/08/06 12:09:52;;;;;;;;;;;;;;;;;;5130312;27;19926;-83
2021/08/06 12:12:18;;;;;;;;;;;;;;;;;;5146900;27;19919;-80
2021/08/06 12:14:44;;;;;;;;;;;;;;;;;;5136942;27;19920;-79
2021/08/06 12:17:10;;;;;;;;;;;;;;;;;;5138086;27;19920;-76
2021/08/06 12:19:36;;;;;;;;;;;;;;;;;;5119618;27;19923;-76
2021/08/06 12:22:02;;;;;;;;;;;;;;;;;;5125020;27;20357;-77
2021/08/06 12:24:28;;;;;;;;;;;;;;;;;;5128646;27;19930;-78
2021/08/06 12:26:59;;;;;;;;;;;;;;;;;;5134502;27;19920;-77
2021/08/06 12:29:25;;;;;;;;;;;;;;;;;;5132430;27;19919;-77
2021/08/06 12:31:51;;;;;;;;;;;;;;;;;;5136302;27;19919;-77
2021/08/06 12:34:17;;;;;;;;;;;;;;;;;;5135127;27;19919;-77
2021/08/06 12:36:43;;;;;;;;;;;;;;;;;;5137534;27;19934;-76
2021/08/06 12:39:10;;;;;;;;;;;;;;;;;;5142603;27;19919;-73
2021/08/06 12:41:36;;;;;;;;;;;;;;;;;;5131110;27;19929;-73
2021/08/06 12:44:02;;;;;;;;;;;;;;;;;;5140328;27;19919;-74
2021/08/06 12:46:28;;;;;;;;;;;;;;;;;;5151752;27;20006;-73
2021/08/06 12:48:54;;;;;;;;;;;;;;;;;;5139911;27;19962;-74
2021/08/06 12:51:20;;;;;;;;;;;;;;;;;;5146756;27;19951;-74
2021/08/06 12:53:46;;;;;;;;;;;;;;;;;;5134406;27;20729;-73
2021/08/06 12:56:12;;;;;;;;;;;;;;;;;;5134268;27;19930;-74
2021/08/06 12:58:38;;;;;;;;;;;;;;;;;;5135099;27;19923;-73
2021/08/06 13:01:04;;;;;;;;;;;;;;;;;;5135376;27;19964;-74
2021/08/06 13:03:31;;;;;;;;;;;;;;;;;;5134152;27;20008;-73
2021/08/06 13:05:58;;;;;;;;;;;;;;;;;;5137852;27;19948;-73
2021/08/06 13:08:25;;;;;;;;;;;;;;;;;;5147263;27;19926;-73
2021/08/06 13:10:51;;;;;;;;;;;;;;;;;;5144709;27;19931;-73
2021/08/06 13:13:17;;;;;;;;;;;;;;;;;;5144128;27;19923;-73
2021/08/06 13:15:43;;;;;;;;;;;;;;;;;;5135188;27;20009;-73
2021/08/06 13:18:09;;;;;;;;;;;;;;;;;;5135579;27;19926;-73
2021/08/06 13:20:37;;;;;;;;;;;;;;;;;;5146684;27;20417;-73
2021/08/06 13:23:03;;;;;;;;;;;;;;;;;;5149290;27;19974;-73
2021/08/06 13:25:29;;;;;;;;;;;;;;;;;;5141385;27;19928;-73
2021/08/06 13:27:55;;;;;;;;;;;;;;;;;;5146161;27;19925;-76
2021/08/06 13:30:22;;;;;;;;;;;;;;;;;;5144097;27;19919;-73
2021/08/06 13:32:48;;;;;;;;;;;;;;;;;;5135118;27;19924;-74
2021/08/06 13:35:14;;;;;;;;;;;;;;;;;;5134408;27;20018;-73
2021/08/06 13:37:40;;;;;;;;;;;;;;;;;;5138868;27;20620;-73
2021/08/06 13:40:06;;;;;;;;;;;;;;;;;;5144233;27;19920;-74
2021/08/06 13:42:33;;;;;;;;;;;;;;;;;;5135100;27;20094;-72
2021/08/06 13:44:59;;;;;;;;;;;;;;;;;;5132319;27;19934;-81
2021/08/06 13:47:25;;;;;;;;;;;;;;;;;;5115459;27;19919;-73
2021/08/06 13:49:51;;;;;;;;;;;;;;;;;;5117732;27;19923;-74
2021/08/06 13:52:17;;;;;;;;;;;;;;;;;;5133910;27;19923;-76
2021/08/06 13:54:43;;;;;;;;;;;;;;;;;;5135711;27;20263;-76
2021/08/06 13:57:09;;;;;;;;;;;;;;;;;;5132985;27;19920;-76
2021/08/06 13:59:35;;;;;;;;;;;;;;;;;;5131071;27;19915;-73
2021/08/06 14:02:01;;;;;;;;;;;;;;;;;;5140033;27;19969;-73
2021/08/06 14:04:27;;;;;;;;;;;;;;;;;;5138075;27;19937;-75
2021/08/06 14:06:57;;;;;;;;;;;;;;;;;;5128179;27;20048;-75
2021/08/06 14:09:23;;;;;;;;;;;;;;;;;;5126690;27;19926;-77
2021/08/06 14:11:49;;;;;;;;;;;;;;;;;;5145610;27;20440;-76
2021/08/06 14:14:15;;;;;;;;;;;;;;;;;;5148981;27;20008;-75
2021/08/06 14:16:41;;;;;;;;;;;;;;;;;;5123699;27;20010;-73
2021/08/06 14:19:07;;;;;;;;;;;;;;;;;;5116880;27;19928;-75
2021/08/06 14:21:33;;;;;;;;;;;;;;;;;;5120127;27;19919;-72
2021/08/06 14:23:59;;;;;;;;;;;;;;;;;;5136409;27;19923;-73
2021/08/06 14:26:25;;;;;;;;;;;;;;;;;;5136462;27;19923;-73
2021/08/06 14:28:51;;;;;;;;;;;;;;;;;;5132872;27;19924;-73
2021/08/06 14:31:17;;;;;;;;;;;;;;;;;;5121319;27;20113;-75
2021/08/06 14:33:44;;;;;;;;;;;;;;;;;;5120588;27;19935;-73
2021/08/06 14:36:10;;;;;;;;;;;;;;;;;;5124598;27;19922;-73
2021/08/06 14:38:36;;;;;;;;;;;;;;;;;;5124122;27;19930;-75
2021/08/06 14:41:02;;;;;;;;;;;;;;;;;;5132254;27;19952;-75
2021/08/06 14:43:29;;;;;;;;;;;;;;;;;;5128595;27;19929;-74
2021/08/06 14:45:55;;;;;;;;;;;;;;;;;;5137750;27;19954;-73
2021/08/06 14:48:21;;;;;;;;;;;;;;;;;;5134519;27;20297;-74
2021/08/06 14:50:47;;;;;;;;;;;;;;;;;;5114203;27;19966;-72
2021/08/06 14:53:13;;;;;;;;;;;;;;;;;;5137851;27;20364;-74
2021/08/06 14:55:39;;;;;;;;;;;;;;;;;;5131602;27;20164;-72
2021/08/06 14:58:05;;;;;;;;;;;;;;;;;;5136891;27;20373;-73